Time;durP1;ratioP1;P1;durP2;ratioP2;P2;SDS_P1;SDS_P2;PMS_P1;PMS_P2;Temp;Humidity;BMP_temperature;BMP_pressure;BME280_temperature;BME280_humidity;BME280_pressure;Samples;Min_cycle;Max_cycle;Signal;HPM_P1;HPM_P2
2022/04/04 00:01:16;;;;;;;10.75;4.63;;;2.40;98.90;;;;;;6090327;23;20029;-83
2022/04/04 00:03:42;;;;;;;15.93;5.10;;;4.10;99.90;;;;;;6064958;23;20446;-83
2022/04/04 00:06:07;;;;;;;17.08;4.50;;;2.10;99.90;;;;;;6090097;23;20124;-83
2022/04/04 00:08:33;;;;;;;14.02;4.47;;;3.20;99.90;;;;;;6065054;23;20072;-83
2022/04/04 00:11:00;;;;;;;11.98;4.90;;;6.00;97.20;;;;;;6067432;23;20073;-88
2022/04/04 00:13:27;;;;;;;14.80;4.97;;;3.30;99.90;;;;;;6093125;23;20458;-85
2022/04/04 00:15:53;;;;;;;16.25;4.88;;;4.10;99.90;;;;;;6090650;23;20450;-83
2022/04/04 00:18:19;;;;;;;15.32;5.70;;;2.30;99.90;;;;;;6089311;23;20048;-86
2022/04/04 00:20:45;;;;;;;13.57;5.68;;;;;;;;;;6065319;23;20532;-88
2022/04/04 00:23:14;;;;;;;11.90;5.28;;;2.10;99.90;;;;;;6091204;23;20058;-82
2022/04/04 00:25:45;;;;;;;15.57;5.53;;;3.50;99.90;;;;;;6064948;23;20054;-84
2022/04/04 00:28:11;;;;;;;12.90;5.93;;;2.90;99.90;;;;;;6088332;23;20022;-83
2022/04/04 00:30:37;;;;;;;11.55;5.72;;;3.40;99.90;;;;;;6090387;23;20014;-85
2022/04/04 00:33:04;;;;;;;13.95;5.40;;;3.40;99.90;;;;;;6017356;23;20477;-83
2022/04/04 00:35:30;;;;;;;10.82;5.50;;;4.00;99.90;;;;;;6090235;23;20022;-83
2022/04/04 00:37:56;;;;;;;14.43;5.53;;;;;;;;;;6064687;23;20014;-82
2022/04/04 00:40:25;;;;;;;16.23;6.55;;;3.60;98.90;;;;;;6064484;23;20025;-82
2022/04/04 00:42:52;;;;;;;14.40;6.13;;;4.00;98.80;;;;;;6090142;23;20082;-83
2022/04/04 00:45:18;;;;;;;12.07;5.50;;;5.20;99.90;;;;;;6090378;23;20018;-84
2022/04/04 00:47:44;;;;;;;12.43;5.82;;;;;;;;;;6090672;23;20125;-87
2022/04/04 00:50:11;;;;;;;16.40;5.88;;;3.70;97.70;;;;;;6064936;23;20450;-83
2022/04/04 00:52:38;;;;;;;11.75;6.07;;;5.50;90.40;;;;;;6064379;23;20346;-89
2022/04/04 00:55:07;;;;;;;16.60;6.68;;;3.50;90.30;;;;;;6065362;23;20101;-91
2022/04/04 00:57:34;;;;;;;12.05;5.88;;;4.50;97.30;;;;;;6091071;23;20382;-83
2022/04/04 01:00:00;;;;;;;18.20;6.93;;;6.40;91.60;;;;;;6040616;23;20022;-83
2022/04/04 01:02:28;;;;;;;13.18;7.00;;;4.10;96.40;;;;;;6088290;23;20469;-84
2022/04/04 01:04:53;;;;;;;;;;;4.00;91.80;;;;;;6090865;23;20038;-82
2022/04/04 01:07:19;;;;;;;13.43;6.53;;;1.50;91.90;;;;;;6091860;23;19917;-84
2022/04/04 01:09:45;;;;;;;18.67;7.78;;;;;;;;;;6094193;23;20046;-83
2022/04/04 01:12:13;;;;;;;15.45;6.57;;;4.40;91.20;;;;;;6099169;23;20038;-81
2022/04/04 01:14:48;;;;;;;14.32;7.25;;;3.10;91.40;;;;;;6104887;23;20050;-82
2022/04/04 01:17:25;;;;;;;14.70;7.50;;;4.40;90.10;;;;;;6079150;23;20041;-82
2022/04/04 01:19:51;;;;;;;17.27;8.25;;;;;;;;;;6085293;23;20118;-81
2022/04/04 01:22:17;;;;;;;18.00;7.55;;;3.30;90.00;;;;;;6106329;23;20023;-85
2022/04/04 01:24:43;;;;;;;18.30;8.10;;;3.90;85.10;;;;;;6083971;23;20041;-83
2022/04/04 01:27:11;;;;;;;15.82;8.32;;;4.50;86.50;;;;;;6111953;23;20018;-84
2022/04/04 01:29:38;;;;;;;14.73;8.10;;;5.80;76.30;;;;;;6088671;23;20026;-84
2022/04/04 01:32:05;;;;;;;16.38;8.65;;;3.90;74.30;;;;;;6076429;23;20030;-86
2022/04/04 01:34:31;;;;;;;19.52;9.05;;;4.30;88.80;;;;;;6066144;23;20469;-83
2022/04/04 01:36:57;;;;;;;21.60;9.85;;;4.00;90.70;;;;;;6067191;23;20264;-82
2022/04/04 01:39:25;;;;;;;18.63;9.98;;;3.80;87.50;;;;;;6091378;23;20036;-83
2022/04/04 01:41:51;;;;;;;19.23;10.75;;;;;;;;;;6092334;23;20014;-83
2022/04/04 01:44:18;;;;;;;23.05;12.70;;;;;;;;;;6091262;23;20446;-84
2022/04/04 01:46:43;;;;;;;30.48;12.20;;;4.40;96.20;;;;;;6091022;23;20027;-84
2022/04/04 01:49:10;;;;;;;25.20;12.70;;;3.30;97.80;;;;;;6092672;23;20025;-84
2022/04/04 01:51:37;;;;;;;21.73;11.80;;;3.80;93.40;;;;;;6092839;23;20022;-88
2022/04/04 01:54:04;;;;;;;21.67;12.23;;;3.40;92.90;;;;;;6092689;23;20030;-85
2022/04/04 01:56:30;;;;;;;27.20;13.65;;;4.40;94.60;;;;;;6065290;23;20022;-84
2022/04/04 01:58:56;;;;;;;25.25;14.55;;;3.40;96.30;;;;;;6091644;23;20022;-86
2022/04/04 02:01:23;;;;;;;30.23;15.63;;;4.80;97.30;;;;;;6064951;23;20034;-84
2022/04/04 02:03:57;;;;;;;26.75;15.23;;;4.70;94.70;;;;;;6065596;23;20125;-87
2022/04/04 02:06:24;;;;;;;22.88;14.95;;;4.00;96.50;;;;;;6043418;23;20022;-86
2022/04/04 02:08:50;;;;;;;27.25;16.00;;;4.40;94.00;;;;;;6045867;23;20036;-85
2022/04/04 02:11:17;;;;;;;32.63;16.98;;;4.20;98.10;;;;;;6042231;23;20018;-85
2022/04/04 02:13:43;;;;;;;31.50;17.88;;;2.80;99.70;;;;;;6018878;23;20022;-85
2022/04/04 02:16:11;;;;;;;28.00;15.55;;;6.20;91.90;;;;;;6091065;23;20073;-88
2022/04/04 02:18:37;;;;;;;23.70;15.70;;;;;;;;;;6091403;23;20441;-88
2022/04/04 02:21:05;;;;;;;26.38;16.73;;;4.30;99.90;;;;;;6065737;23;20426;-87
2022/04/04 02:23:31;;;;;;;28.90;16.63;;;4.70;99.90;;;;;;6091137;23;20584;-86
2022/04/04 02:25:58;;;;;;;26.83;18.40;;;;;;;;;;6090703;23;20042;-86
2022/04/04 02:28:25;;;;;;;28.60;18.77;;;3.40;99.90;;;;;;6041417;23;20441;-87
2022/04/04 02:30:52;;;;;;;27.73;17.55;;;4.30;99.90;;;;;;6088845;23;20266;-86
2022/04/04 02:33:20;;;;;;;28.23;18.00;;;3.90;99.90;;;;;;6090174;23;20022;-86
2022/04/04 02:35:46;;;;;;;28.30;18.77;;;2.20;99.90;;;;;;6065091;23;20485;-86
2022/04/04 02:38:13;;;;;;;29.77;17.25;;;;;;;;;;6090583;23;20026;-86
2022/04/04 02:40:40;;;;;;;31.35;17.38;;;3.60;99.90;;;;;;6065446;23;20018;-87
2022/04/04 02:43:06;;;;;;;28.98;19.13;;;4.20;99.90;;;;;;6091199;23;20411;-86
2022/04/04 02:45:33;;;;;;;33.35;18.85;;;3.90;99.90;;;;;;6091352;23;20042;-87
2022/04/04 02:47:59;;;;;;;33.42;18.92;;;5.20;99.90;;;;;;6064522;23;20022;-86
2022/04/04 02:50:26;;;;;;;31.67;18.85;;;4.10;99.90;;;;;;6064708;23;20018;-86
2022/04/04 02:52:52;;;;;;;33.13;18.30;;;2.70;99.90;;;;;;6091485;23;20027;-86
2022/04/04 02:58:02;;;;;;;33.63;16.38;;;6.80;99.90;;;;;;6092969;23;20110;-89
2022/04/04 03:00:28;;;;;;;29.90;16.40;;;4.40;99.90;;;;;;6090289;23;20097;-88
2022/04/04 03:02:55;;;;;;;27.30;16.02;;;5.40;99.90;;;;;;6089992;23;20472;-90
2022/04/04 03:05:21;;;;;;;27.38;17.90;;;7.00;99.90;;;;;;6065829;23;20438;-90
2022/04/04 03:07:47;;;;;;;29.00;17.70;;;6.60;99.90;;;;;;6090699;23;20026;-89
2022/04/04 03:10:13;;;;;;;32.28;19.27;;;2.90;99.90;;;;;;6090147;23;20030;-87
2022/04/04 03:12:41;;;;;;;32.42;19.55;;;5.10;99.90;;;;;;6040777;23;20026;-88
2022/04/04 03:15:14;;;;;;;;;;;4.40;99.90;;;;;;6090801;23;20066;-88
2022/04/04 03:17:42;;;;;;;39.70;17.80;;;4.30;99.90;;;;;;6091110;23;19921;-88
2022/04/04 03:20:10;;;;;;;38.65;20.00;;;5.10;99.90;;;;;;6094187;23;20022;-88
2022/04/04 03:22:41;;;;;;;42.67;20.65;;;3.80;99.90;;;;;;6091606;23;20339;-89
2022/04/04 03:25:08;;;;;;;53.17;21.75;;;4.80;99.90;;;;;;6064843;23;20307;-85
2022/04/04 03:27:36;;;;;;;32.33;20.27;;;2.50;99.90;;;;;;6091528;23;20037;-85
2022/04/04 03:30:06;;;;;;;40.17;20.27;;;5.00;99.90;;;;;;6089200;23;20026;-86
2022/04/04 03:32:33;;;;;;;34.17;19.25;;;4.10;99.90;;;;;;6089402;23;20011;-86
2022/04/04 03:34:59;;;;;;;34.33;20.90;;;4.30;99.90;;;;;;6088631;23;20030;-87
2022/04/04 03:37:27;;;;;;;29.58;19.10;;;2.90;99.90;;;;;;6065542;23;20088;-85
2022/04/04 03:39:53;;;;;;;36.38;19.40;;;5.40;99.90;;;;;;6090028;23;20018;-85
2022/04/04 03:42:20;;;;;;;37.80;19.63;;;3.60;99.90;;;;;;6089980;23;20029;-85
2022/04/04 03:44:46;;;;;;;36.35;18.90;;;6.70;99.90;;;;;;6089873;23;20313;-83
2022/04/04 03:47:12;;;;;;;38.42;19.02;;;4.80;96.00;;;;;;6065517;23;20073;-83
2022/04/04 03:49:38;;;;;;;38.08;19.65;;;4.90;99.90;;;;;;6090623;23;20514;-83
2022/04/04 03:52:05;;;;;;;56.85;20.67;;;4.70;99.90;;;;;;6091020;23;20023;-82
2022/04/04 03:54:31;;;;;;;33.15;19.33;;;;;;;;;;6089759;23;20152;-83
2022/04/04 03:56:57;;;;;;;34.90;20.77;;;5.90;99.90;;;;;;6090761;23;20294;-83
2022/04/04 03:59:24;;;;;;;39.05;20.10;;;4.40;99.90;;;;;;6090664;23;20022;-83
2022/04/04 04:01:49;;;;;;;59.67;24.85;;;4.30;99.90;;;;;;6064154;23;20403;-82
2022/04/04 04:04:15;;;;;;;32.13;19.75;;;5.10;99.90;;;;;;6091519;23;20026;-81
2022/04/04 04:06:41;;;;;;;33.35;20.77;;;4.30;99.90;;;;;;6091346;23;20611;-81
2022/04/04 04:09:06;;;;;;;34.45;18.95;;;6.50;99.90;;;;;;6093024;23;20370;-81
2022/04/04 04:11:32;;;;;;;84.80;27.27;;;4.70;99.90;;;;;;6092868;23;20093;-80
2022/04/04 04:14:00;;;;;;;38.20;21.92;;;4.70;99.90;;;;;;6094189;23;20026;-80
2022/04/04 04:16:26;;;;;;;37.45;21.08;;;5.30;99.90;;;;;;6092721;23;20085;-80
2022/04/04 04:18:52;;;;;;;35.55;25.05;;;;;;;;;;6091880;23;20018;-83
2022/04/04 04:21:18;;;;;;;42.20;23.35;;;3.90;99.90;;;;;;6092370;23;20026;-81
2022/04/04 04:23:44;;;;;;;43.13;25.20;;;6.70;99.90;;;;;;6092258;23;20105;-80
2022/04/04 04:26:13;;;;;;;70.13;23.20;;;7.00;99.90;;;;;;6093023;23;20029;-80
2022/04/04 04:28:40;;;;;;;34.90;20.70;;;6.70;99.90;;;;;;6092725;23;20022;-81
2022/04/04 04:31:06;;;;;;;42.17;23.42;;;;;;;;;;6093081;23;20041;-83
2022/04/04 04:33:32;;;;;;;37.72;24.30;;;5.30;99.90;;;;;;6092804;23;20053;-81
2022/04/04 04:36:00;;;;;;;36.70;23.70;;;4.90;99.90;;;;;;6067516;23;20021;-81
2022/04/04 04:38:26;;;;;;;39.40;22.80;;;6.50;99.90;;;;;;6091454;23;20018;-83
2022/04/04 04:40:52;;;;;;;43.75;23.55;;;6.70;99.90;;;;;;6093154;23;20060;-81
2022/04/04 04:43:19;;;;;;;41.10;25.23;;;4.80;99.90;;;;;;6094101;23;20027;-81
2022/04/04 04:45:45;;;;;;;41.78;24.25;;;7.00;99.90;;;;;;6093845;23;20019;-81
2022/04/04 04:48:10;;;;;;;38.92;22.13;;;3.30;99.90;;;;;;6067300;23;20418;-81
2022/04/04 04:50:36;;;;;;;42.00;23.15;;;5.80;99.90;;;;;;6066899;23;20120;-82
2022/04/04 04:53:02;;;;;;;37.03;24.60;;;6.50;99.90;;;;;;6093317;23;20028;-81
2022/04/04 04:55:30;;;;;;;34.90;23.38;;;4.90;99.90;;;;;;6091280;23;20018;-81
2022/04/04 04:57:56;;;;;;;;;;;7.30;99.90;;;;;;6069228;23;20427;-81
2022/04/04 05:00:26;;;;;;;39.10;22.33;;;2.70;99.90;;;;;;6096220;23;19917;-81
2022/04/04 05:05:38;;;;;;;41.78;22.88;;;4.80;99.90;;;;;;6096129;23;20097;-81
2022/04/04 05:08:04;;;;;;;44.65;24.92;;;4.90;99.90;;;;;;6096795;23;20022;-81
2022/04/04 05:10:30;;;;;;;45.03;25.33;;;5.10;1.00;;;;;;6047273;23;20417;-82
2022/04/04 05:12:56;;;;;;;38.47;24.58;;;4.60;1.00;;;;;;6094325;23;20081;-81
2022/04/04 05:15:23;;;;;;;43.85;25.38;;;4.80;1.00;;;;;;6098004;23;20327;-82
2022/04/04 05:17:53;;;;;;;54.43;27.57;;;6.80;99.90;;;;;;6096466;23;20109;-82
2022/04/04 05:20:19;;;;;;;48.58;27.83;;;4.60;99.90;;;;;;6097363;23;20101;-82
2022/04/04 05:22:46;;;;;;;46.83;27.02;;;3.70;99.90;;;;;;6096222;23;20054;-80
2022/04/04 05:25:12;;;;;;;46.70;27.33;;;3.50;1.00;;;;;;6097460;23;20025;-82
2022/04/04 05:27:39;;;;;;;58.95;31.27;;;4.40;1.00;;;;;;6094545;23;20058;-82
2022/04/04 05:30:05;;;;;;;51.53;30.17;;;4.80;1.00;;;;;;6097153;23;20010;-82
2022/04/04 05:32:32;;;;;;;55.90;29.95;;;6.80;1.00;;;;;;6096063;23;20326;-83
2022/04/04 05:34:58;;;;;;;57.08;32.75;;;4.80;1.00;;;;;;6097336;23;20015;-82
2022/04/04 05:37:25;;;;;;;64.63;35.17;;;4.50;1.00;;;;;;6097557;23;20070;-83
2022/04/04 05:39:51;;;;;;;56.22;29.92;;;;;;;;;;6097178;23;20033;-82
2022/04/04 05:42:17;;;;;;;72.63;34.47;;;4.80;38.50;;;;;;6071880;23;20015;-81
2022/04/04 05:44:43;;;;;;;170.80;45.33;;;4.40;1.00;;;;;;6096833;23;20318;-82
2022/04/04 05:47:13;;;;;;;70.55;35.35;;;5.20;1.00;;;;;;6047190;23;20085;-82
2022/04/04 05:49:40;;;;;;;65.18;30.77;;;4.70;1.00;;;;;;6096583;23;20033;-82
2022/04/04 05:52:06;;;;;;;64.70;35.25;;;5.20;1.00;;;;;;6096778;23;20421;-82
2022/04/04 05:54:32;;;;;;;65.03;35.67;;;5.30;1.00;;;;;;6071470;23;20042;-83
2022/04/04 05:56:58;;;;;;;54.03;35.17;;;4.40;1.00;;;;;;6096273;23;20366;-82
2022/04/04 05:59:25;;;;;;;58.97;34.05;;;7.50;1.00;;;;;;6097047;23;20030;-83
2022/04/04 06:01:52;;;;;;;62.95;35.80;;;4.70;39.00;;;;;;5999329;23;20462;-82
2022/04/04 06:04:18;;;;;;;147.20;46.15;;;5.50;99.90;;;;;;6071144;23;20031;-82
2022/04/04 06:06:44;;;;;;;72.05;38.50;;;;;;;;;;6023323;23;20018;-83
2022/04/04 06:09:10;;;;;;;73.70;38.08;;;4.80;99.90;;;;;;6071622;23;20132;-83
2022/04/04 06:11:36;;;;;;;71.03;37.58;;;6.10;99.90;;;;;;6044947;23;20019;-83
2022/04/04 06:14:02;;;;;;;162.10;50.47;;;5.10;99.90;;;;;;6096204;23;20093;-82
2022/04/04 06:16:29;;;;;;;92.15;45.30;;;5.40;99.90;;;;;;6095208;23;20027;-82
2022/04/04 06:18:56;;;;;;;84.32;43.38;;;;;;;;;;6095203;23;20066;-84
2022/04/04 06:21:22;;;;;;;80.05;43.90;;;;;;;;;;6064958;23;20023;-84
2022/04/04 06:23:48;;;;;;;84.57;47.15;;;5.30;99.90;;;;;;6094237;23;20018;-84
2022/04/04 06:26:14;;;;;;;183.13;50.05;;;;;;;;;;6094840;23;20093;-83
2022/04/04 06:28:40;;;;;;;91.20;47.55;;;4.80;99.90;;;;;;6094415;23;20022;-85
2022/04/04 06:31:06;;;;;;;96.47;44.92;;;7.40;99.90;;;;;;6068609;23;20066;-85
2022/04/04 06:33:32;;;;;;;82.03;43.67;;;5.50;99.90;;;;;;6094113;23;20073;-85
2022/04/04 06:35:58;;;;;;;90.35;46.95;;;5.00;99.90;;;;;;6068852;23;20093;-84
2022/04/04 06:38:23;;;;;;;162.32;55.47;;;4.10;99.90;;;;;;6092703;23;20101;-84
2022/04/04 06:40:49;;;;;;;481.70;78.43;;;4.60;99.90;;;;;;6044831;23;20025;-83
2022/04/04 06:43:19;;;;;;;86.00;43.78;;;7.80;99.90;;;;;;6068320;23;20025;-84
2022/04/04 06:45:45;;;;;;;89.97;43.00;;;7.60;99.90;;;;;;6067907;23;20073;-84
2022/04/04 06:48:11;;;;;;;85.95;49.50;;;;;;;;;;6094546;23;20033;-83
2022/04/04 06:50:38;;;;;;;92.07;45.47;;;5.40;99.90;;;;;;6093927;23;20050;-84
2022/04/04 06:53:04;;;;;;;93.50;50.40;;;4.90;99.90;;;;;;6095263;23;20060;-84
2022/04/04 06:55:31;;;;;;;95.07;47.22;;;5.00;99.90;;;;;;6069453;23;20394;-85
2022/04/04 06:57:57;;;;;;;99.50;49.67;;;7.60;99.90;;;;;;6094981;23;20081;-84
2022/04/04 07:00:23;;;;;;;91.55;45.17;;;4.70;99.90;;;;;;6095445;23;20018;-85
2022/04/04 07:02:54;;;;;;;93.22;49.05;;;4.50;99.90;;;;;;6016126;23;20023;-85
2022/04/04 07:05:20;;;;;;;86.18;45.55;;;4.80;99.90;;;;;;6065814;23;20030;-85
2022/04/04 07:07:46;;;;;;;87.47;45.53;;;4.00;99.90;;;;;;6064153;23;20066;-84
2022/04/04 07:10:12;;;;;;;89.78;47.95;;;7.40;99.90;;;;;;6066705;23;20094;-85
2022/04/04 07:12:42;;;;;;;86.28;40.25;;;3.80;99.90;;;;;;6064569;23;20482;-83
2022/04/04 07:15:10;;;;;;;118.00;48.35;;;6.20;99.90;;;;;;6063555;23;20396;-83
2022/04/04 07:17:40;;;;;;;83.68;41.00;;;5.60;99.90;;;;;;6065147;23;20019;-83
2022/04/04 07:20:06;;;;;;;94.60;45.53;;;4.70;99.90;;;;;;6040563;23;20078;-83
2022/04/04 07:22:36;;;;;;;87.38;48.70;;;4.90;99.90;;;;;;6065144;23;20050;-84
2022/04/04 07:25:04;;;;;;;91.80;46.45;;;8.80;99.90;;;;;;6065667;23;20022;-84
2022/04/04 07:27:30;;;;;;;86.32;47.80;;;6.40;99.90;;;;;;6065828;23;20077;-84
2022/04/04 07:29:57;;;;;;;138.93;51.78;;;6.00;99.90;;;;;;6065253;23;20403;-84
2022/04/04 07:32:23;;;;;;;103.38;48.83;;;;;;;;;;6063848;23;20014;-84
2022/04/04 07:34:49;;;;;;;98.85;50.03;;;4.80;99.90;;;;;;6064966;23;20022;-84
2022/04/04 07:37:14;;;;;;;90.53;49.78;;;5.70;99.90;;;;;;6065977;23;20019;-84
2022/04/04 07:39:42;;;;;;;184.40;53.80;;;6.70;99.90;;;;;;6065212;23;20079;-85
2022/04/04 07:42:08;;;;;;;93.70;49.45;;;2.40;99.90;;;;;;6040370;23;20019;-84
2022/04/04 07:44:34;;;;;;;89.68;49.17;;;3.30;99.90;;;;;;6063980;23;20082;-84
2022/04/04 07:47:01;;;;;;;97.97;45.88;;;6.90;99.90;;;;;;6062933;23;20530;-85
2022/04/04 07:49:27;;;;;;;97.10;47.25;;;;;;;;;;6065382;23;20027;-85
2022/04/04 07:51:53;;;;;;;91.43;48.60;;;;;;;;;;6063634;23;20085;-84
2022/04/04 07:54:19;;;;;;;96.43;49.67;;;5.80;99.90;;;;;;6065842;23;20101;-83
2022/04/04 07:56:45;;;;;;;82.65;45.70;;;8.10;99.90;;;;;;6065113;23;20381;-84
2022/04/04 07:59:11;;;;;;;95.47;45.70;;;7.50;99.90;;;;;;6087637;23;20022;-84
2022/04/04 08:01:40;;;;;;;83.97;46.03;;;5.90;99.90;;;;;;6063021;23;20350;-84
2022/04/04 08:04:06;;;;;;;99.70;44.75;;;5.90;99.90;;;;;;6084501;23;20026;-84
2022/04/04 08:06:32;;;;;;;75.32;41.83;;;;;;;;;;6093402;23;20026;-83
2022/04/04 08:08:58;;;;;;;103.38;45.08;;;;;;;;;;6094168;23;20022;-85
2022/04/04 08:11:24;;;;;;;116.90;40.95;;;4.80;99.90;;;;;;6094031;23;20081;-83
2022/04/04 08:13:50;;;;;;;75.18;38.72;;;7.20;99.90;;;;;;6043452;23;20027;-83
2022/04/04 08:16:19;;;;;;;57.15;28.63;;;6.00;99.90;;;;;;6068469;23;20461;-84
2022/04/04 08:18:45;;;;;;;53.80;28.67;;;5.20;99.90;;;;;;6093490;23;20022;-84
2022/04/04 08:21:12;;;;;;;70.10;35.42;;;6.60;99.90;;;;;;6093778;23;20089;-83
2022/04/04 08:23:38;;;;;;;58.87;29.87;;;;;;;;;;6092784;23;20195;-85
2022/04/04 08:26:04;;;;;;;69.00;36.22;;;6.50;99.90;;;;;;6065071;23;20265;-84
2022/04/04 08:28:30;;;;;;;163.88;37.97;;;7.60;99.90;;;;;;6093375;23;20097;-84
2022/04/04 08:30:55;;;;;;;69.93;35.97;;;7.50;99.90;;;;;;6066994;23;20040;-84
2022/04/04 08:33:23;;;;;;;159.93;42.13;;;8.40;99.90;;;;;;6092924;23;20106;-83
2022/04/04 08:35:50;;;;;;;71.85;36.05;;;6.30;99.90;;;;;;6092833;23;20030;-83
2022/04/04 08:38:15;;;;;;;41.10;22.45;;;5.70;99.90;;;;;;6093932;23;20430;-84
2022/04/04 08:40:44;;;;;;;62.55;32.25;;;6.60;99.90;;;;;;6094333;23;20022;-83
2022/04/04 08:43:11;;;;;;;208.95;43.22;;;8.60;99.90;;;;;;6068471;23;20025;-84
2022/04/04 08:45:42;;;;;;;156.52;39.15;;;8.10;99.90;;;;;;6093856;23;20022;-84
2022/04/04 08:48:12;;;;;;;55.25;27.42;;;7.30;99.90;;;;;;6093468;23;20449;-83
2022/04/04 08:50:51;;;;;;;39.22;20.67;;;7.60;99.90;;;;;;6093756;23;20069;-84
2022/04/04 08:53:18;;;;;;;38.35;19.98;;;6.50;99.90;;;;;;6068687;23;20061;-84
2022/04/04 08:55:43;;;;;;;38.97;19.80;;;6.70;99.90;;;;;;6093474;23;20060;-84
2022/04/04 08:58:10;;;;;;;61.20;22.42;;;7.20;99.90;;;;;;6094498;23;20280;-85
2022/04/04 09:00:45;;;;;;;44.17;21.03;;;5.30;99.90;;;;;;6068856;23;20029;-84
2022/04/04 09:03:18;;;;;;;41.28;18.45;;;8.50;99.90;;;;;;6092064;23;20018;-85
2022/04/04 09:05:55;;;;;;;45.85;19.00;;;4.70;99.90;;;;;;6092407;23;20401;-84
2022/04/04 09:08:23;;;;;;;33.60;16.95;;;6.10;99.90;;;;;;6092965;23;20097;-83
2022/04/04 09:10:54;;;;;;;37.63;18.60;;;5.80;99.90;;;;;;6092874;23;20018;-81
2022/04/04 09:13:24;;;;;;;143.52;26.95;;;7.00;99.90;;;;;;6068677;23;20022;-84
2022/04/04 09:15:57;;;;;;;112.32;21.95;;;6.90;99.90;;;;;;6092878;23;20026;-84
2022/04/04 09:18:49;;;;;;;30.13;11.98;;;8.20;99.90;;;;;;6093509;23;20033;-84
2022/04/04 09:21:18;;;;;;;234.23;26.13;;;6.30;99.90;;;;;;6063578;23;20457;-83
2022/04/04 09:23:50;;;;;;;531.38;54.47;;;7.60;99.90;;;;;;6093321;23;20327;-84
2022/04/04 09:26:46;;;;;;;;;;;;;;;;;;;;;
2022/04/04 09:29:12;;;;;;;53.40;16.38;;;8.50;99.90;;;;;;6093837;23;20438;-85
2022/04/04 09:31:58;;;;;;;27.02;12.25;;;4.90;99.90;;;;;;6093172;23;20094;-84
2022/04/04 09:34:26;;;;;;;52.55;14.65;;;7.30;99.90;;;;;;6094043;23;20078;-83
2022/04/04 09:36:52;;;;;;;53.78;13.60;;;6.00;99.90;;;;;;6067543;23;20026;-83
2022/04/04 09:39:21;;;;;;;61.13;13.75;;;6.20;99.90;;;;;;6094180;23;20374;-84
2022/04/04 09:41:56;;;;;;;78.55;17.45;;;7.80;99.90;;;;;;6092454;23;20019;-82
2022/04/04 09:44:25;;;;;;;31.75;11.55;;;6.50;99.90;;;;;;6092639;23;20334;-85
2022/04/04 09:46:51;;;;;;;114.90;21.25;;;6.30;99.90;;;;;;6044955;23;20026;-84
2022/04/04 09:49:27;;;;;;;22.55;11.20;;;7.70;99.90;;;;;;6070484;23;20071;-85
2022/04/04 09:51:55;;;;;;;121.38;15.82;;;6.80;99.90;;;;;;6095505;23;20019;-84
2022/04/04 09:54:29;;;;;;;;;;;8.70;99.90;;;;;;6070336;23;20014;-87
2022/04/04 09:57:27;;;;;;;45.42;14.55;;;6.20;99.90;;;;;;6045802;23;20328;-88
2022/04/04 09:59:57;;;;;;;48.25;18.80;;;5.40;99.90;;;;;;6069279;23;20022;-85
2022/04/04 10:02:23;;;;;;;146.40;26.55;;;;;;;;;;6093903;23;20056;-85
2022/04/04 10:04:54;;;;;;;57.28;18.58;;;4.70;99.90;;;;;;6069300;23;20037;-83
2022/04/04 10:07:20;;;;;;;88.70;20.25;;;9.20;99.90;;;;;;6070369;23;20026;-83
2022/04/04 10:09:46;;;;;;;35.45;16.88;;;;;;;;;;6069997;23;20345;-84
2022/04/04 10:12:14;;;;;;;307.70;32.45;;;6.50;99.90;;;;;;6070234;23;20018;-85
2022/04/04 10:14:40;;;;;;;29.70;13.67;;;7.90;99.90;;;;;;6070006;23;20073;-85
2022/04/04 10:17:07;;;;;;;31.63;15.55;;;8.70;99.90;;;;;;6068580;23;20030;-84
2022/04/04 10:19:34;;;;;;;23.00;11.05;;;8.20;99.90;;;;;;6094635;23;20505;-85
2022/04/04 10:22:00;;;;;;;34.42;15.65;;;7.90;99.90;;;;;;6068405;23;20029;-85
2022/04/04 10:24:27;;;;;;;34.30;13.10;;;;;;;;;;6045533;23;20026;-84
2022/04/04 10:26:53;;;;;;;202.00;29.45;;;7.70;99.90;;;;;;6095149;23;20018;-84
2022/04/04 10:29:20;;;;;;;34.33;16.42;;;7.20;99.90;;;;;;6069562;23;20019;-86
2022/04/04 10:31:55;;;;;;;29.67;14.32;;;10.60;99.90;;;;;;6094349;23;20110;-86
2022/04/04 10:34:27;;;;;;;44.97;15.98;;;5.90;99.90;;;;;;6095844;23;20022;-85
2022/04/04 10:36:54;;;;;;;133.98;28.33;;;9.60;99.90;;;;;;6068830;23;20022;-87
2022/04/04 10:39:44;;;;;;;37.20;17.52;;;9.90;99.90;;;;;;6095514;23;20018;-86
2022/04/04 10:42:37;;;;;;;27.88;11.65;;;6.10;99.90;;;;;;6081969;23;20323;-85
2022/04/04 10:45:10;;;;;;;32.00;14.77;;;7.10;99.90;;;;;;6068330;23;20409;-84
2022/04/04 10:47:44;;;;;;;23.58;13.07;;;8.50;99.90;;;;;;6094796;23;20019;-85
2022/04/04 10:50:25;;;;;;;29.85;15.07;;;7.60;99.90;;;;;;6068630;23;20514;-87
2022/04/04 10:52:53;;;;;;;91.45;18.67;;;7.40;99.90;;;;;;6068745;23;20018;-87
2022/04/04 10:55:34;;;;;;;;;;;8.30;99.90;;;;;;6069864;23;20022;-84
2022/04/04 10:58:19;;;;;;;22.70;11.75;;;9.80;99.90;;;;;;6068161;23;19921;-85
2022/04/04 11:01:11;;;;;;;28.10;15.80;;;8.10;99.90;;;;;;6094774;23;20122;-85
2022/04/04 11:03:39;;;;;;;72.47;17.77;;;7.80;99.90;;;;;;6045607;23;20399;-86
2022/04/04 11:09:18;;;;;;;28.50;14.57;;;8.30;99.90;;;;;;6094188;23;20092;-85
2022/04/04 11:11:49;;;;;;;28.15;14.02;;;8.30;99.90;;;;;;6094949;23;20018;-85
2022/04/04 11:14:41;;;;;;;27.13;15.05;;;8.40;99.90;;;;;;6093085;23;20080;-85
2022/04/04 11:17:17;;;;;;;21.90;12.18;;;9.40;99.90;;;;;;6057499;23;20018;-85
2022/04/04 11:19:46;;;;;;;20.77;12.18;;;8.60;99.90;;;;;;6093762;23;20030;-85
2022/04/04 11:22:25;;;;;;;24.40;11.65;;;6.70;99.90;;;;;;6092706;23;20030;-85
2022/04/04 11:24:58;;;;;;;16.83;9.25;;;9.70;99.90;;;;;;6068854;23;20019;-84
2022/04/04 11:27:25;;;;;;;34.58;13.93;;;9.10;99.90;;;;;;6094395;23;20022;-85
2022/04/04 11:29:54;;;;;;;22.80;10.82;;;8.60;99.90;;;;;;6094065;23;20025;-84
2022/04/04 11:32:40;;;;;;;19.15;11.65;;;9.30;99.90;;;;;;6068656;23;20366;-84
2022/04/04 11:35:23;;;;;;;15.43;9.20;;;10.00;99.90;;;;;;6093774;23;20026;-85
2022/04/04 11:38:07;;;;;;;112.07;19.77;;;9.70;99.90;;;;;;6094569;23;20097;-85
2022/04/04 11:40:38;;;;;;;41.42;11.20;;;8.50;99.90;;;;;;6093091;23;20346;-85
2022/04/04 11:43:09;;;;;;;17.23;10.00;;;10.30;99.90;;;;;;6093473;23;20097;-85
2022/04/04 11:45:37;;;;;;;25.15;11.15;;;9.50;99.90;;;;;;6093963;23;20026;-86
2022/04/04 11:48:11;;;;;;;32.85;13.32;;;9.40;99.90;;;;;;6093162;23;20042;-86
2022/04/04 11:50:38;;;;;;;98.70;18.15;;;8.40;99.90;;;;;;6094105;23;20121;-87
2022/04/04 11:53:12;;;;;;;16.08;8.10;;;9.20;99.90;;;;;;6093450;23;20406;-87
2022/04/04 11:55:41;;;;;;;165.75;20.70;;;8.50;99.90;;;;;;6092921;23;20034;-86
2022/04/04 11:58:12;;;;;;;17.23;7.85;;;10.10;99.90;;;;;;6067682;23;20033;-87
2022/04/04 12:00:42;;;;;;;16.10;8.63;;;9.60;99.90;;;;;;6094586;23;20014;-87
2022/04/04 12:03:15;;;;;;;16.42;8.10;;;10.50;99.90;;;;;;6091967;23;20349;-86
2022/04/04 12:05:45;;;;;;;14.85;7.70;;;9.80;99.90;;;;;;6044891;23;20022;-86
2022/04/04 12:08:12;;;;;;;17.30;7.80;;;9.50;99.90;;;;;;6086327;23;20030;-86
2022/04/04 12:10:42;;;;;;;132.85;20.83;;;9.70;99.90;;;;;;6094181;23;20029;-86
2022/04/04 12:13:12;;;;;;;50.50;14.75;;;8.80;99.90;;;;;;6067929;23;20520;-85
2022/04/04 12:15:42;;;;;;;26.27;7.45;;;10.00;99.90;;;;;;6092238;23;20018;-86
2022/04/04 12:18:09;;;;;;;24.45;6.45;;;9.90;99.90;;;;;;6067928;23;20038;-85
2022/04/04 12:20:45;;;;;;;15.85;6.30;;;9.40;99.90;;;;;;6067371;23;20014;-84
2022/04/04 12:26:12;;;;;;;100.18;20.80;;;10.60;99.90;;;;;;6093192;23;20065;-84
2022/04/04 12:28:48;;;;;;;42.17;9.50;;;10.10;99.90;;;;;;6093519;23;20025;-84
2022/04/04 12:31:18;;;;;;;19.10;9.93;;;9.50;99.90;;;;;;6093006;23;20453;-84
2022/04/04 12:33:51;;;;;;;27.23;9.05;;;9.20;99.90;;;;;;6093644;23;20374;-84
2022/04/04 12:36:38;;;;;;;142.98;16.05;;;11.00;99.90;;;;;;6092601;23;20044;-85
2022/04/04 12:39:05;;;;;;;10.65;6.63;;;9.20;99.90;;;;;;6067404;23;20018;-86
2022/04/04 12:41:42;;;;;;;14.23;6.43;;;9.20;99.90;;;;;;6069052;23;20330;-85
2022/04/04 12:44:07;;;;;;;62.80;12.98;;;12.70;99.90;;;;;;6093243;23;20057;-86
2022/04/04 12:46:34;;;;;;;13.43;5.88;;;11.00;99.90;;;;;;6093753;23;20026;-86
2022/04/04 12:49:12;;;;;;;12.63;6.20;;;9.60;99.90;;;;;;6067709;23;20022;-87
2022/04/04 12:51:39;;;;;;;199.02;20.67;;;9.40;99.90;;;;;;6093855;23;20025;-84
2022/04/04 12:54:06;;;;;;;38.40;10.55;;;9.60;99.90;;;;;;6092259;23;20026;-84
2022/04/04 12:56:48;;;;;;;73.30;10.05;;;9.20;99.90;;;;;;6093249;23;20070;-85
2022/04/04 12:59:15;;;;;;;24.58;8.90;;;9.20;99.90;;;;;;6043301;23;20049;-84
2022/04/04 13:01:41;;;;;;;12.68;6.20;;;8.90;99.90;;;;;;6067830;23;20097;-84
2022/04/04 13:04:19;;;;;;;17.20;5.25;;;9.90;99.90;;;;;;6093017;23;20022;-85
2022/04/04 13:06:45;;;;;;;63.22;12.93;;;8.80;99.90;;;;;;6093580;23;20040;-86